Kirtland, Ohio
Current Conditions -  °F | °C
As of 1:45 PM on Tuesday 21 Oct 2014 (Local Time) from KCGF Reporting Station
Overcast Overcast  
Wind Chill: 52°   Ceiling: 1200
Heat Index: 52°   Visibility: 7mi
Dew Point: 46°   Wind: 18mph
Humidity: 82%   Direction: 330°NNW
Pressure: 29.95"   Gusts: NA
Location:  41.5761°N, 81.1919°W
Report Text: KCGF 211745Z 33016KT 7SM SCT009 BKN012 OVC020 11/08 A2995
Loading
Personal Weather Stations






























Interactive Weather Map
Tropical Storm Tracking
New forecast layout! Learn more

10-Day Weather Forecast

Advertisements
Track Severe Weather on mobile